CMA CGM Aristote — MRPN4 — position and weather

sailwx.info

Track history (hours):
 
Tides and Currents Weather Stations Pressure Air Temp Water Temp Dewpoint Dewpoint Depression Visibility Wind Speed Wind Dir Waves Ship Positions

CMA CGM Aristote

Last reported at 2017-Mar-24 00:09 UTC. Time now 2017-Mar-25 05:56 UTC.
Position N 35°57' W 006°01'.

Length 170 m; draft 10 m.

Type: Ship (hazmat cat A). MMSI: 235054581.

Date/timePositionNaut miles runAvg speedWind from/ knotsBaromVisibWave heightAir tempDewpointWater temp
2017-Mar-24 00:09N 35°57' W 006°01'911.9
2017-Mar-23 23:26N 35°57' W 005°50'1111.9
2017-Mar-23 22:29N 35°57' W 005°37'7 0.8
2017-Mar-23 14:32N 35°54' W 005°29'0 0.0
2017-Mar-23 13:29N 35°54' W 005°29'0 0.0
2017-Mar-23 12:32N 35°54' W 005°29'0 0.0
2017-Mar-23 11:29N 35°54' W 005°29'0 0.0
2017-Mar-23 10:31N 35°54' W 005°29'0 0.0
2017-Mar-23 09:31N 35°54' W 005°29'0 0.0
2017-Mar-23 08:31N 35°54' W 005°29'2 2.0
2017-Mar-23 07:33N 35°55' W 005°31'2 1.6
2017-Mar-23 06:34N 35°54' W 005°33'1 0.7
2017-Mar-23 05:33N 35°54' W 005°33'0 0.4
2017-Mar-23 04:34N 35°54' W 005°33'5 4.6
2017-Mar-23 03:33N 35°58' W 005°31'1111.0
2017-Mar-23 02:33N 36°01' W 005°17'6 5.6
2017-Mar-23 01:34N 36°03' W 005°11'2 1.8
2017-Mar-23 00:33N 36°03' W 005°13'7 6.9
2017-Mar-22 23:33N 36°04' W 005°05'3 2.7
2017-Mar-22 22:33N 36°04' W 005°08'3 3.2
2017-Mar-22 21:33N 36°02' W 005°05'3 3.4
2017-Mar-22 20:33N 36°02' W 005°09'1 1.5
2017-Mar-22 19:33N 36°03' W 005°10'7 1.4
2017-Mar-22 14:09N 36°05' W 005°02'3 4.2
2017-Mar-22 13:26N 36°05' W 005°05'3 3.0
2017-Mar-22 12:25N 36°05' W 005°09'2 2.3
2017-Mar-22 11:33N 36°05' W 005°12'1 1.3
2017-Mar-22 10:32N 36°06' W 005°13'3 3.2
2017-Mar-22 09:33N 36°06' W 005°17'7 7.1
2017-Mar-22 08:34N 36°08' W 005°25'0 0.0
2017-Mar-22 07:33N 36°08' W 005°25'0 0.0
2017-Mar-22 06:33N 36°08' W 005°25'0 0.0
2017-Mar-22 05:33N 36°08' W 005°25'0 0.0
2017-Mar-22 04:33N 36°08' W 005°25'0 0.0
2017-Mar-22 03:34N 36°08' W 005°25'0 0.0
2017-Mar-22 02:34N 36°08' W 005°25'0 0.0
2017-Mar-22 01:33N 36°08' W 005°25'0 0.0
2017-Mar-22 00:33N 36°08' W 005°25'0 0.0
2017-Mar-21 23:33N 36°08' W 005°25'6 6.4
2017-Mar-21 22:33N 36°05' W 005°18'8 7.5
2017-Mar-21 21:33N 35°59' W 005°23'1312.9
2017-Mar-21 20:33N 35°55' W 005°38'  
2017-Mar-16 19:34N 14°40' W 017°23'2 2.3
2017-Mar-16 18:33N 14°41' W 017°26'0 0.0
2017-Mar-16 17:33N 14°41' W 017°26'0 0.0
2017-Mar-16 16:33N 14°41' W 017°26'0 0.0
2017-Mar-16 15:32N 14°41' W 017°26'0 0.0
2017-Mar-16 14:33N 14°41' W 017°26'0 0.0
2017-Mar-16 13:33N 14°41' W 017°26'0 0.0
2017-Mar-16 12:33N 14°41' W 017°26'4 4.1
2017-Mar-16 11:34N 14°38' W 017°23'6 6.2
2017-Mar-16 10:34N 14°34' W 017°27'8 8.0
2017-Mar-16 09:33N 14°33' W 017°36'9 8.3
2017-Mar-16 08:27N 14°31' W 017°45'1011.3
2017-Mar-16 07:33N 14°28' W 017°55'1313.2
2017-Mar-16 06:33N 14°15' W 017°55'1312.8
2017-Mar-16 05:32N 14°02' W 017°55'1412.8
2017-Mar-16 04:29N 13°48' W 017°55'23 9.7
2017-Mar-16 02:08N 13°37' W 017°35'1112.5
2017-Mar-16 01:17N 13°36' W 017°24'1012.9
2017-Mar-16 00:33N 13°35' W 017°14'1412.8
2017-Mar-15 23:25N 13°34' W 016°60'18 9.7
2017-Mar-15 21:33N 13°35' W 016°41'7 7.0
2017-Mar-15 20:33N 13°31' W 016°35'5 0.4
2017-Mar-15 08:21N 13°27' W 016°34'0 0.0
2017-Mar-15 02:33N 13°27' W 016°34'0 0.0
2017-Mar-15 01:34N 13°27' W 016°34'0 0.0
2017-Mar-15 00:31N 13°27' W 016°34'  
Track history (hours):
 
Tides and Currents Weather Stations Pressure Air Temp Water Temp Dewpoint Dewpoint Depression Visibility Wind Speed Wind Dir Waves Ship Positions

CMA CGM Aristote

Last reported at 2017-Mar-24 00:09 UTC. Time now 2017-Mar-25 05:56 UTC.
Position N 35°57' W 006°01'.

Length 170 m; draft 10 m.

Type: Ship (hazmat cat A). MMSI: 235054581.

Date/timePositionNaut miles runAvg speedWind from/ knotsBaromVisibWave heightAir tempDewpointWater temp
2017-Mar-24 00:09N 35°57' W 006°01'911.9
2017-Mar-23 23:26N 35°57' W 005°50'1111.9
2017-Mar-23 22:29N 35°57' W 005°37'7 0.8
2017-Mar-23 14:32N 35°54' W 005°29'0 0.0
2017-Mar-23 13:29N 35°54' W 005°29'0 0.0
2017-Mar-23 12:32N 35°54' W 005°29'0 0.0
2017-Mar-23 11:29N 35°54' W 005°29'0 0.0
2017-Mar-23 10:31N 35°54' W 005°29'0 0.0
2017-Mar-23 09:31N 35°54' W 005°29'0 0.0
2017-Mar-23 08:31N 35°54' W 005°29'2 2.0
2017-Mar-23 07:33N 35°55' W 005°31'2 1.6
2017-Mar-23 06:34N 35°54' W 005°33'1 0.7
2017-Mar-23 05:33N 35°54' W 005°33'0 0.4
2017-Mar-23 04:34N 35°54' W 005°33'5 4.6
2017-Mar-23 03:33N 35°58' W 005°31'1111.0
2017-Mar-23 02:33N 36°01' W 005°17'6 5.6
2017-Mar-23 01:34N 36°03' W 005°11'2 1.8
2017-Mar-23 00:33N 36°03' W 005°13'7 6.9
2017-Mar-22 23:33N 36°04' W 005°05'3 2.7
2017-Mar-22 22:33N 36°04' W 005°08'3 3.2
2017-Mar-22 21:33N 36°02' W 005°05'3 3.4
2017-Mar-22 20:33N 36°02' W 005°09'1 1.5
2017-Mar-22 19:33N 36°03' W 005°10'7 1.4
2017-Mar-22 14:09N 36°05' W 005°02'3 4.2
2017-Mar-22 13:26N 36°05' W 005°05'3 3.0
2017-Mar-22 12:25N 36°05' W 005°09'2 2.3
2017-Mar-22 11:33N 36°05' W 005°12'1 1.3
2017-Mar-22 10:32N 36°06' W 005°13'3 3.2
2017-Mar-22 09:33N 36°06' W 005°17'7 7.1
2017-Mar-22 08:34N 36°08' W 005°25'0 0.0
2017-Mar-22 07:33N 36°08' W 005°25'0 0.0
2017-Mar-22 06:33N 36°08' W 005°25'0 0.0
2017-Mar-22 05:33N 36°08' W 005°25'0 0.0
2017-Mar-22 04:33N 36°08' W 005°25'0 0.0
2017-Mar-22 03:34N 36°08' W 005°25'0 0.0
2017-Mar-22 02:34N 36°08' W 005°25'0 0.0
2017-Mar-22 01:33N 36°08' W 005°25'0 0.0
2017-Mar-22 00:33N 36°08' W 005°25'0 0.0
2017-Mar-21 23:33N 36°08' W 005°25'6 6.4
2017-Mar-21 22:33N 36°05' W 005°18'8 7.5
2017-Mar-21 21:33N 35°59' W 005°23'1312.9
2017-Mar-21 20:33N 35°55' W 005°38'  
2017-Mar-16 19:34N 14°40' W 017°23'2 2.3
2017-Mar-16 18:33N 14°41' W 017°26'0 0.0
2017-Mar-16 17:33N 14°41' W 017°26'0 0.0
2017-Mar-16 16:33N 14°41' W 017°26'0 0.0
2017-Mar-16 15:32N 14°41' W 017°26'0 0.0
2017-Mar-16 14:33N 14°41' W 017°26'0 0.0
2017-Mar-16 13:33N 14°41' W 017°26'0 0.0
2017-Mar-16 12:33N 14°41' W 017°26'4 4.1
2017-Mar-16 11:34N 14°38' W 017°23'6 6.2
2017-Mar-16 10:34N 14°34' W 017°27'8 8.0
2017-Mar-16 09:33N 14°33' W 017°36'9 8.3
2017-Mar-16 08:27N 14°31' W 017°45'1011.3
2017-Mar-16 07:33N 14°28' W 017°55'1313.2
2017-Mar-16 06:33N 14°15' W 017°55'1312.8
2017-Mar-16 05:32N 14°02' W 017°55'1412.8
2017-Mar-16 04:29N 13°48' W 017°55'23 9.7
2017-Mar-16 02:08N 13°37' W 017°35'1112.5
2017-Mar-16 01:17N 13°36' W 017°24'1012.9
2017-Mar-16 00:33N 13°35' W 017°14'1412.8
2017-Mar-15 23:25N 13°34' W 016°60'18 9.7
2017-Mar-15 21:33N 13°35' W 016°41'7 7.0
2017-Mar-15 20:33N 13°31' W 016°35'5 0.4
2017-Mar-15 08:21N 13°27' W 016°34'0 0.0
2017-Mar-15 02:33N 13°27' W 016°34'0 0.0
2017-Mar-15 01:34N 13°27' W 016°34'0 0.0
2017-Mar-15 00:31N 13°27' W 016°34'  

Dump ship's entire track history